createdAt,value
2022-11-09T00:00:03.919Z,2.30
2022-11-09T00:02:30.326Z,1.98
2022-11-09T00:04:56.777Z,2.10
2022-11-09T00:07:23.115Z,2.03
2022-11-09T00:09:49.656Z,1.90
2022-11-09T00:12:16.058Z,2.05
2022-11-09T00:14:42.352Z,2.10
2022-11-09T00:17:08.643Z,2.05
2022-11-09T00:19:34.985Z,2.10
2022-11-09T00:22:01.269Z,1.80
2022-11-09T00:24:27.619Z,1.75
2022-11-09T00:26:54.025Z,2.10
2022-11-09T00:29:20.386Z,1.85
2022-11-09T00:31:47.681Z,2.20
2022-11-09T00:34:14.081Z,2.75
2022-11-09T00:36:40.466Z,1.90
2022-11-09T00:39:08.403Z,2.53
2022-11-09T00:41:34.791Z,1.95
2022-11-09T00:44:01.102Z,2.00
2022-11-09T00:46:27.807Z,1.77
2022-11-09T00:48:55.975Z,1.52
2022-11-09T00:51:22.564Z,2.00
2022-11-09T00:53:48.845Z,1.60
2022-11-09T00:56:15.614Z,1.52
2022-11-09T00:58:42.004Z,1.42
2022-11-09T01:01:12.833Z,1.67
2022-11-09T01:03:39.660Z,2.00
2022-11-09T01:06:06.714Z,2.03
2022-11-09T01:08:33.885Z,1.90
2022-11-09T01:11:04.740Z,1.75
2022-11-09T01:13:31.180Z,1.50
2022-11-09T01:15:57.576Z,1.55
2022-11-09T01:18:24.038Z,1.70
2022-11-09T01:20:50.949Z,1.70
2022-11-09T01:23:18.442Z,2.20
2022-11-09T01:25:45.155Z,2.13
2022-11-09T01:28:11.907Z,1.90
2022-11-09T01:30:39.874Z,1.88
2022-11-09T01:33:07.562Z,1.45
2022-11-09T01:35:37.886Z,1.80
2022-11-09T01:38:04.912Z,1.48
2022-11-09T01:40:31.905Z,1.40
2022-11-09T01:42:58.374Z,1.60
2022-11-09T01:45:28.519Z,1.63
2022-11-09T01:48:15.176Z,1.40
2022-11-09T01:50:44.803Z,1.75
2022-11-09T01:53:14.795Z,1.75
2022-11-09T01:55:41.584Z,1.20
2022-11-09T01:58:10.044Z,1.30
2022-11-09T02:00:38.939Z,1.25
2022-11-09T02:03:07.799Z,1.00
2022-11-09T02:05:35.084Z,1.30
2022-11-09T02:08:02.868Z,0.95
2022-11-09T02:10:31.927Z,1.10
2022-11-09T02:12:58.799Z,0.90
2022-11-09T02:15:25.384Z,1.20
2022-11-09T02:17:53.793Z,0.95
2022-11-09T02:20:21.025Z,1.30
2022-11-09T02:22:47.372Z,1.20
2022-11-09T02:25:14.733Z,1.20
2022-11-09T02:27:42.593Z,1.40
2022-11-09T02:30:09.516Z,1.30
2022-11-09T02:32:35.907Z,1.20
2022-11-09T02:35:02.320Z,1.60
2022-11-09T02:37:30.601Z,1.48
2022-11-09T02:39:58.951Z,1.20
2022-11-09T02:42:25.325Z,1.50
2022-11-09T02:44:55.284Z,1.38
2022-11-09T02:47:21.602Z,1.42
2022-11-09T02:49:47.917Z,1.10
2022-11-09T02:52:14.208Z,1.15
2022-11-09T02:54:40.640Z,1.20
2022-11-09T02:57:06.934Z,1.17
2022-11-09T02:59:33.225Z,0.90
2022-11-09T03:01:59.626Z,1.13
2022-11-09T03:04:25.919Z,1.05
2022-11-09T03:06:52.564Z,1.02
2022-11-09T03:09:19.223Z,1.20
2022-11-09T03:11:45.644Z,0.90
2022-11-09T03:14:11.993Z,1.00
2022-11-09T03:16:39.064Z,1.13
2022-11-09T03:19:05.644Z,1.00
2022-11-09T03:21:31.934Z,0.90
2022-11-09T03:23:58.286Z,1.10
2022-11-09T03:26:24.608Z,1.05
2022-11-09T03:28:50.963Z,0.80
2022-11-09T03:31:17.421Z,1.15
2022-11-09T03:33:43.754Z,1.10
2022-11-09T03:36:10.162Z,1.00
2022-11-09T03:38:36.521Z,1.10
2022-11-09T03:41:02.973Z,1.17
2022-11-09T03:43:29.716Z,0.98
2022-11-09T03:45:56.492Z,1.17
2022-11-09T03:48:22.804Z,0.82
2022-11-09T03:50:49.088Z,1.27
2022-11-09T03:53:15.560Z,1.25
2022-11-09T03:55:41.855Z,0.85
2022-11-09T03:58:09.595Z,1.00
2022-11-09T04:00:36.188Z,0.80
2022-11-09T04:03:02.648Z,0.90
2022-11-09T04:05:28.946Z,0.73
2022-11-09T04:07:56.511Z,0.90
2022-11-09T04:10:23.630Z,0.80
2022-11-09T04:12:50.272Z,0.93
2022-11-09T04:15:16.853Z,0.75
2022-11-09T04:17:44.684Z,1.20
2022-11-09T04:20:11.494Z,0.90
2022-11-09T04:22:38.002Z,0.80
2022-11-09T04:25:04.909Z,0.85
2022-11-09T04:27:31.255Z,0.98
2022-11-09T04:29:57.740Z,1.10
2022-11-09T04:32:24.283Z,0.60
2022-11-09T04:34:50.563Z,1.00
2022-11-09T04:37:16.996Z,0.80
2022-11-09T04:39:43.304Z,0.60
2022-11-09T04:42:09.599Z,0.70
2022-11-09T04:44:35.991Z,0.80
2022-11-09T04:47:02.326Z,0.63
2022-11-09T04:49:28.636Z,0.93
2022-11-09T04:51:55.040Z,0.80
2022-11-09T04:54:21.335Z,0.60
2022-11-09T04:56:47.653Z,0.60
2022-11-09T04:59:14.136Z,0.68
2022-11-09T05:01:40.427Z,0.60
2022-11-09T05:04:06.765Z,0.70
2022-11-09T05:06:33.219Z,0.65
2022-11-09T05:09:00.908Z,0.57
2022-11-09T05:11:27.196Z,0.80
2022-11-09T05:13:53.783Z,0.52
2022-11-09T05:16:20.427Z,0.68
2022-11-09T05:18:47.028Z,0.50
2022-11-09T05:21:13.380Z,0.60
2022-11-09T05:23:58.553Z,0.57
2022-11-09T05:26:32.859Z,0.50
2022-11-09T05:28:59.948Z,0.70
2022-11-09T05:31:26.928Z,0.70
2022-11-09T05:33:53.541Z,0.70
2022-11-09T05:36:20.103Z,0.55
2022-11-09T05:38:47.395Z,0.80
2022-11-09T05:41:13.869Z,0.90
2022-11-09T05:43:40.542Z,0.88
2022-11-09T05:46:07.348Z,0.80
2022-11-09T05:48:33.738Z,0.88
2022-11-09T05:51:00.771Z,0.90
2022-11-09T05:53:27.156Z,0.90
2022-11-09T05:55:53.581Z,0.80
2022-11-09T05:58:19.921Z,0.88
2022-11-09T06:00:46.280Z,0.82
2022-11-09T06:03:12.698Z,0.50
2022-11-09T06:05:40.051Z,0.80
2022-11-09T06:08:07.759Z,0.80
2022-11-09T06:10:34.685Z,0.70
2022-11-09T06:13:01.127Z,0.70
2022-11-09T06:15:27.680Z,0.70
2022-11-09T06:17:54.372Z,0.70
2022-11-09T06:20:21.400Z,0.73
2022-11-09T06:23:02.839Z,0.85
2022-11-09T06:25:31.679Z,0.80
2022-11-09T06:27:58.417Z,0.82
2022-11-09T06:30:24.763Z,0.70
2022-11-09T06:32:51.059Z,0.90
2022-11-09T06:35:17.458Z,0.70
2022-11-09T06:37:43.821Z,0.60
2022-11-09T06:40:10.577Z,0.77
2022-11-09T06:42:37.029Z,0.80
2022-11-09T06:45:03.487Z,0.70
2022-11-09T06:47:29.781Z,0.80
2022-11-09T06:49:56.195Z,0.95
2022-11-09T06:52:22.981Z,1.25
2022-11-09T06:54:49.283Z,1.90
2022-11-09T06:57:15.712Z,2.33
2022-11-09T06:59:42.072Z,2.65
2022-11-09T07:02:09.038Z,3.80
2022-11-09T07:04:38.294Z,2.42
2022-11-09T07:07:04.923Z,1.90
2022-11-09T07:09:31.288Z,2.88
2022-11-09T07:11:59.010Z,3.40
2022-11-09T07:14:25.368Z,2.05
2022-11-09T07:16:51.663Z,1.40
2022-11-09T07:19:18.098Z,1.60
2022-11-09T07:21:44.383Z,2.03
2022-11-09T07:24:10.665Z,1.55
2022-11-09T07:26:37.061Z,1.02
2022-11-09T07:29:03.370Z,1.00
2022-11-09T07:31:30.659Z,0.80
2022-11-09T07:33:58.451Z,0.82
2022-11-09T07:36:25.981Z,0.93
2022-11-09T07:38:52.286Z,0.98
2022-11-09T07:41:18.712Z,0.70
2022-11-09T07:43:45.036Z,0.88
2022-11-09T07:46:11.483Z,0.80
2022-11-09T07:48:37.889Z,0.70
2022-11-09T07:51:04.359Z,0.95
2022-11-09T07:53:30.915Z,0.95
2022-11-09T07:55:58.600Z,0.82
2022-11-09T07:58:24.934Z,1.02
2022-11-09T08:00:51.276Z,0.88
2022-11-09T08:03:22.307Z,0.90
2022-11-09T08:05:49.155Z,0.80
2022-11-09T08:08:16.489Z,0.88
2022-11-09T08:10:43.651Z,0.70
2022-11-09T08:13:10.959Z,0.90
2022-11-09T08:15:38.319Z,0.80
2022-11-09T08:18:06.504Z,0.80
2022-11-09T08:20:33.658Z,0.95
2022-11-09T08:23:04.095Z,0.68
2022-11-09T08:25:35.389Z,0.80
2022-11-09T08:28:03.143Z,0.80
2022-11-09T08:30:29.553Z,0.80
2022-11-09T08:32:55.964Z,0.70
2022-11-09T08:35:23.628Z,0.82
2022-11-09T08:37:51.434Z,0.88
2022-11-09T08:40:20.380Z,0.70
2022-11-09T08:42:47.227Z,0.82
2022-11-09T08:45:14.177Z,0.70
2022-11-09T08:47:40.903Z,0.98
2022-11-09T08:50:08.101Z,0.70
2022-11-09T08:52:35.162Z,0.65
2022-11-09T08:55:01.677Z,0.60
2022-11-09T08:57:28.519Z,0.63
2022-11-09T08:59:54.849Z,0.90
2022-11-09T09:02:21.382Z,0.63
2022-11-09T09:04:47.948Z,0.82
2022-11-09T09:07:14.758Z,0.70
2022-11-09T09:09:41.376Z,0.70
2022-11-09T09:12:08.499Z,0.70
2022-11-09T09:14:35.508Z,0.63
2022-11-09T09:17:02.033Z,0.70
2022-11-09T09:19:28.670Z,0.70
2022-11-09T09:21:55.083Z,0.77
2022-11-09T09:24:21.777Z,0.80
2022-11-09T09:26:48.418Z,0.70
2022-11-09T09:29:14.776Z,0.60
2022-11-09T09:31:41.562Z,0.70
2022-11-09T09:34:07.953Z,1.02
2022-11-09T09:36:35.511Z,0.73
2022-11-09T09:39:01.870Z,0.77
2022-11-09T09:41:34.464Z,0.98
2022-11-09T09:44:13.904Z,1.33
2022-11-09T09:46:40.191Z,0.77
2022-11-09T09:49:13.204Z,1.05
2022-11-09T09:51:39.631Z,1.20
2022-11-09T09:54:26.246Z,0.90
2022-11-09T09:56:54.327Z,0.93
2022-11-09T09:59:29.683Z,0.70
2022-11-09T10:01:58.450Z,0.60
2022-11-09T10:04:32.418Z,0.68
2022-11-09T10:07:18.799Z,0.70
2022-11-09T10:10:03.340Z,0.63
2022-11-09T10:12:49.216Z,0.80
2022-11-09T10:15:19.716Z,0.60
2022-11-09T10:17:46.049Z,0.90
2022-11-09T10:20:24.602Z,0.88
2022-11-09T10:23:09.898Z,0.60
2022-11-09T10:28:34.267Z,0.65
2022-11-09T10:31:15.245Z,0.77
2022-11-09T10:33:41.583Z,0.90
2022-11-09T10:36:10.725Z,1.10
2022-11-09T10:38:40.237Z,0.80
2022-11-09T10:41:14.713Z,0.80
2022-11-09T10:43:41.031Z,0.60
2022-11-09T10:46:08.899Z,0.50
2022-11-09T10:48:36.680Z,0.50
2022-11-09T10:51:03.459Z,0.60
2022-11-09T10:53:31.020Z,0.45
2022-11-09T10:56:20.748Z,0.60
2022-11-09T10:58:49.510Z,0.60
2022-11-09T11:01:22.888Z,0.60
2022-11-09T11:03:50.348Z,0.60
2022-11-09T11:06:16.641Z,0.57
2022-11-09T11:08:53.555Z,0.63
2022-11-09T11:11:36.417Z,0.65
2022-11-09T11:14:29.838Z,0.70
2022-11-09T11:16:56.312Z,0.77
2022-11-09T11:19:25.688Z,0.77
2022-11-09T11:22:10.096Z,1.38
2022-11-09T11:25:15.301Z,1.20
2022-11-09T11:27:48.789Z,1.00
2022-11-09T11:30:16.567Z,0.70
2022-11-09T11:32:48.798Z,0.80
2022-11-09T11:35:18.771Z,0.50
2022-11-09T11:37:45.149Z,0.65
2022-11-09T11:40:17.509Z,0.60
2022-11-09T11:42:59.187Z,0.77
2022-11-09T11:45:41.679Z,0.75
2022-11-09T11:48:08.547Z,0.73
2022-11-09T11:50:34.829Z,0.70
2022-11-09T11:53:18.989Z,0.70
2022-11-09T11:55:55.887Z,0.80
2022-11-09T11:58:35.757Z,0.90
2022-11-09T12:01:02.088Z,0.70
2022-11-09T12:03:50.546Z,0.70
2022-11-09T12:06:44.322Z,0.75
2022-11-09T12:09:14.009Z,0.75
2022-11-09T12:11:59.020Z,0.70
2022-11-09T12:14:36.095Z,0.80
2022-11-09T12:17:11.572Z,0.40
2022-11-09T12:19:40.932Z,0.77
2022-11-09T12:22:12.709Z,0.65
2022-11-09T12:24:59.410Z,0.82
2022-11-09T12:27:33.205Z,0.70
2022-11-09T12:29:59.893Z,0.80
2022-11-09T12:32:29.423Z,0.90
2022-11-09T12:35:03.398Z,0.82
2022-11-09T12:37:35.509Z,0.73
2022-11-09T12:40:11.835Z,0.70
2022-11-09T12:42:48.153Z,0.90
2022-11-09T12:45:29.768Z,0.80
2022-11-09T12:47:58.855Z,1.00
2022-11-09T12:50:26.175Z,0.82
2022-11-09T12:52:52.784Z,0.70
2022-11-09T12:55:21.475Z,0.80
2022-11-09T12:57:48.370Z,1.15
2022-11-09T13:00:45.929Z,0.80
2022-11-09T13:03:20.961Z,0.88
2022-11-09T13:05:49.625Z,0.50
2022-11-09T13:08:36.168Z,0.95
2022-11-09T13:11:09.674Z,0.98
2022-11-09T13:13:36.568Z,0.85
2022-11-09T13:16:21.913Z,0.80
2022-11-09T13:18:51.260Z,0.60
2022-11-09T13:21:23.640Z,0.70
2022-11-09T13:24:09.154Z,0.40
2022-11-09T13:26:37.129Z,0.75
2022-11-09T13:29:07.750Z,0.85
2022-11-09T13:31:52.684Z,1.10
2022-11-09T13:34:37.949Z,1.23
2022-11-09T13:37:23.175Z,1.00
2022-11-09T13:39:49.499Z,1.33
2022-11-09T13:42:24.041Z,0.85
2022-11-09T13:44:50.499Z,0.85
2022-11-09T13:47:23.851Z,1.38
2022-11-09T13:49:51.083Z,0.80
2022-11-09T13:52:36.203Z,1.20
2022-11-09T13:55:02.833Z,1.10
2022-11-09T13:57:31.302Z,0.95
2022-11-09T13:59:58.510Z,1.17
2022-11-09T14:02:25.735Z,1.60
2022-11-09T14:04:52.063Z,0.95
2022-11-09T14:07:27.219Z,1.20
2022-11-09T14:10:01.947Z,0.85
2022-11-09T14:12:38.199Z,0.88
2022-11-09T14:15:07.557Z,0.80
2022-11-09T14:17:37.928Z,1.00
2022-11-09T14:20:24.585Z,0.82
2022-11-09T14:22:51.168Z,0.80
2022-11-09T14:25:18.688Z,0.60
2022-11-09T14:27:50.600Z,0.70
2022-11-09T14:32:47.911Z,0.85
2022-11-09T14:35:28.847Z,0.97
2022-11-09T14:37:56.008Z,0.73
2022-11-09T14:40:24.212Z,0.80
2022-11-09T14:42:52.324Z,0.90
2022-11-09T14:45:18.901Z,0.85
2022-11-09T14:47:47.141Z,1.30
2022-11-09T14:50:33.666Z,0.70
2022-11-09T14:53:00.997Z,0.73
2022-11-09T14:55:28.352Z,1.10
2022-11-09T14:57:55.812Z,1.23
2022-11-09T15:00:23.812Z,1.30
2022-11-09T15:02:50.132Z,0.80
2022-11-09T15:05:28.443Z,0.90
2022-11-09T15:07:54.872Z,1.08
2022-11-09T15:10:22.759Z,0.98
2022-11-09T15:12:50.123Z,1.10
2022-11-09T15:15:21.210Z,1.27
2022-11-09T15:17:47.542Z,0.97
2022-11-09T15:20:13.958Z,1.23
2022-11-09T15:22:40.274Z,1.30
2022-11-09T15:25:21.763Z,1.02
2022-11-09T15:28:06.920Z,0.80
2022-11-09T15:30:40.833Z,1.30
2022-11-09T15:33:20.180Z,0.98
2022-11-09T15:35:49.487Z,0.85
2022-11-09T15:38:28.935Z,0.85
2022-11-09T15:40:55.293Z,0.80
2022-11-09T15:43:21.636Z,1.17
2022-11-09T15:45:48.300Z,0.95
2022-11-09T15:48:14.745Z,1.30
2022-11-09T15:50:41.224Z,1.05
2022-11-09T15:53:09.485Z,1.25
2022-11-09T15:55:35.820Z,0.80
2022-11-09T15:58:02.109Z,0.95
2022-11-09T16:00:28.533Z,1.02
2022-11-09T16:02:55.165Z,1.15
2022-11-09T16:05:23.228Z,1.10
2022-11-09T16:07:50.278Z,0.70
2022-11-09T16:10:17.922Z,1.38
2022-11-09T16:12:46.483Z,1.73
2022-11-09T16:15:13.731Z,1.30
2022-11-09T16:17:40.123Z,1.50
2022-11-09T16:20:06.954Z,1.52
2022-11-09T16:22:33.524Z,1.70
2022-11-09T16:24:59.949Z,1.77
2022-11-09T16:27:49.058Z,1.50
2022-11-09T16:30:13.106Z,1.35
2022-11-09T16:32:39.936Z,1.30
2022-11-09T16:37:55.346Z,1.80
2022-11-09T16:40:22.004Z,1.20
2022-11-09T16:42:48.915Z,1.20
2022-11-09T16:45:16.121Z,1.13
2022-11-09T16:47:44.575Z,1.17
2022-11-09T16:50:10.940Z,1.30
2022-11-09T16:52:37.420Z,1.17
2022-11-09T16:55:03.950Z,1.60
2022-11-09T16:57:30.265Z,1.20
2022-11-09T16:59:56.793Z,2.00
2022-11-09T17:02:24.115Z,1.25
2022-11-09T17:04:50.398Z,2.42
2022-11-09T17:07:16.852Z,1.90
2022-11-09T17:09:43.153Z,1.85
2022-11-09T17:12:09.653Z,1.90
2022-11-09T17:14:36.085Z,1.85
2022-11-09T17:17:02.406Z,1.60
2022-11-09T17:19:32.974Z,1.77
2022-11-09T17:21:59.355Z,1.83
2022-11-09T17:24:26.448Z,1.80
2022-11-09T17:26:52.940Z,1.70
2022-11-09T17:29:19.440Z,1.67
2022-11-09T17:31:45.749Z,1.83
2022-11-09T17:34:12.325Z,2.13
2022-11-09T17:39:25.306Z,1.65
2022-11-09T17:41:51.840Z,2.35
2022-11-09T17:44:18.244Z,1.75
2022-11-09T17:46:44.782Z,2.33
2022-11-09T17:49:11.267Z,1.90
2022-11-09T17:51:37.949Z,1.92
2022-11-09T17:54:04.582Z,1.80
2022-11-09T17:56:31.784Z,1.58
2022-11-09T17:58:58.077Z,1.33
2022-11-09T18:01:24.586Z,1.40
2022-11-09T18:03:50.953Z,1.20
2022-11-09T18:06:21.395Z,2.60
2022-11-09T18:09:03.612Z,1.60
2022-11-09T18:11:34.524Z,1.88
2022-11-09T18:14:01.129Z,1.52
2022-11-09T18:16:28.172Z,1.77
2022-11-09T18:19:01.751Z,1.63
2022-11-09T18:21:28.587Z,1.65
2022-11-09T18:23:55.140Z,1.45
2022-11-09T18:26:21.881Z,1.73
2022-11-09T18:28:48.219Z,1.20
2022-11-09T18:31:14.748Z,1.20
2022-11-09T18:33:42.750Z,1.60
2022-11-09T18:36:11.481Z,2.10
2022-11-09T18:38:38.459Z,2.00
2022-11-09T18:41:06.576Z,2.03
2022-11-09T18:43:32.919Z,1.67
2022-11-09T18:46:00.467Z,1.13
2022-11-09T18:48:27.277Z,1.48
2022-11-09T18:50:54.632Z,1.20
2022-11-09T18:53:21.906Z,0.82
2022-11-09T18:55:49.110Z,1.20
2022-11-09T18:58:15.733Z,0.95
2022-11-09T19:00:42.432Z,1.67
2022-11-09T19:03:13.479Z,1.00
2022-11-09T19:05:40.566Z,1.20
2022-11-09T19:08:06.964Z,1.42
2022-11-09T19:10:34.737Z,1.10
2022-11-09T19:13:01.941Z,1.58
2022-11-09T19:15:28.535Z,1.67
2022-11-09T19:17:55.120Z,1.25
2022-11-09T19:20:21.456Z,1.20
2022-11-09T19:22:48.340Z,1.20
2022-11-09T19:25:14.960Z,1.33
2022-11-09T19:27:41.533Z,1.42
2022-11-09T19:30:09.803Z,1.20
2022-11-09T19:32:36.404Z,1.23
2022-11-09T19:35:02.852Z,1.30
2022-11-09T19:37:29.270Z,1.38
2022-11-09T19:39:55.780Z,1.10
2022-11-09T19:42:22.166Z,1.13
2022-11-09T19:44:52.217Z,1.10
2022-11-09T19:47:22.498Z,0.95
2022-11-09T19:49:51.963Z,0.98
2022-11-09T19:52:18.559Z,1.50
2022-11-09T19:54:45.904Z,1.30
2022-11-09T19:57:12.356Z,0.98
2022-11-09T19:59:38.789Z,1.02
2022-11-09T20:02:06.022Z,1.17
2022-11-09T20:04:33.087Z,1.15
2022-11-09T20:06:59.464Z,1.13
2022-11-09T20:09:25.869Z,1.05
2022-11-09T20:12:11.053Z,1.02
2022-11-09T20:14:37.823Z,0.70
2022-11-09T20:17:05.627Z,1.10
2022-11-09T20:19:31.994Z,0.93
2022-11-09T20:21:58.750Z,1.17
2022-11-09T20:24:25.123Z,1.00
2022-11-09T20:26:51.416Z,0.88
2022-11-09T20:29:17.773Z,0.60
2022-11-09T20:31:44.140Z,1.00
2022-11-09T20:34:10.505Z,1.15
2022-11-09T20:36:37.051Z,1.40
2022-11-09T20:39:03.512Z,0.95
2022-11-09T20:41:29.917Z,0.90
2022-11-09T20:43:56.277Z,1.10
2022-11-09T20:46:23.363Z,0.80
2022-11-09T20:48:55.369Z,1.65
2022-11-09T20:51:22.677Z,1.00
2022-11-09T20:53:50.116Z,0.95
2022-11-09T20:56:16.988Z,0.80
2022-11-09T20:58:43.388Z,0.70
2022-11-09T21:01:20.583Z,1.08
2022-11-09T21:03:47.453Z,1.15
2022-11-09T21:06:14.122Z,1.10
2022-11-09T21:08:40.514Z,1.00
2022-11-09T21:11:07.820Z,0.80
2022-11-09T21:13:34.386Z,0.95
2022-11-09T21:16:14.628Z,0.95
2022-11-09T21:18:41.416Z,1.05
2022-11-09T21:21:08.495Z,1.30
2022-11-09T21:23:54.549Z,0.93
2022-11-09T21:26:39.821Z,1.02
2022-11-09T21:29:27.175Z,1.50
2022-11-09T21:31:53.478Z,1.45
2022-11-09T21:34:19.802Z,1.80
2022-11-09T21:36:46.270Z,1.45
2022-11-09T21:39:12.573Z,1.70
2022-11-09T21:41:39.120Z,2.03
2022-11-09T21:44:06.566Z,1.65
2022-11-09T21:46:32.862Z,1.20
2022-11-09T21:48:59.263Z,1.20
2022-11-09T21:51:25.849Z,1.13
2022-11-09T21:53:52.155Z,1.20
2022-11-09T21:56:18.473Z,0.90
2022-11-09T21:58:48.348Z,1.00
2022-11-09T22:01:15.839Z,1.00
2022-11-09T22:03:42.390Z,1.45
2022-11-09T22:06:08.914Z,1.60
2022-11-09T22:08:35.260Z,1.50
2022-11-09T22:11:09.262Z,1.48
2022-11-09T22:13:54.654Z,1.10
2022-11-09T22:16:21.687Z,1.23
2022-11-09T22:19:06.770Z,0.80
2022-11-09T22:21:33.139Z,0.90
2022-11-09T22:24:00.267Z,1.30
2022-11-09T22:26:27.453Z,1.50
2022-11-09T22:28:53.913Z,1.10
2022-11-09T22:31:20.245Z,0.90
2022-11-09T22:33:46.562Z,1.00
2022-11-09T22:36:14.080Z,0.80
2022-11-09T22:38:40.504Z,0.88
2022-11-09T22:41:09.362Z,1.30
2022-11-09T22:43:36.619Z,1.45
2022-11-09T22:46:06.219Z,1.42
2022-11-09T22:48:33.620Z,1.40
2022-11-09T22:50:59.958Z,1.10
2022-11-09T22:53:26.338Z,1.02
2022-11-09T22:55:56.614Z,0.95
2022-11-09T22:58:23.519Z,1.95
2022-11-09T23:00:50.143Z,1.40
2022-11-09T23:03:16.968Z,1.20
2022-11-09T23:05:43.738Z,0.90
2022-11-09T23:08:10.120Z,0.98
2022-11-09T23:10:36.880Z,1.00
2022-11-09T23:13:03.936Z,1.00
2022-11-09T23:15:30.293Z,0.80
2022-11-09T23:18:15.835Z,0.90
2022-11-09T23:20:42.624Z,1.02
2022-11-09T23:23:09.455Z,1.20
2022-11-09T23:25:54.073Z,0.98
2022-11-09T23:28:20.381Z,0.90
2022-11-09T23:30:46.724Z,1.00
2022-11-09T23:33:13.127Z,0.95
2022-11-09T23:35:39.459Z,1.23
2022-11-09T23:38:06.089Z,0.65
2022-11-09T23:40:33.786Z,1.00
2022-11-09T23:43:10.498Z,0.95
2022-11-09T23:45:37.587Z,0.90
2022-11-09T23:48:04.573Z,0.80
2022-11-09T23:50:31.237Z,0.90
2022-11-09T23:52:58.287Z,0.90
2022-11-09T23:55:25.029Z,0.80
2022-11-09T23:57:51.322Z,1.00
